sensor_id;sensor_type;location;lat;lon;timestamp;temperature;humidity
5128;DHT22;2582;48.770;9.190;2023-07-22T00:00:59;17.60;99.90
5128;DHT22;2582;48.770;9.190;2023-07-22T00:03:24;17.50;99.90
5128;DHT22;2582;48.770;9.190;2023-07-22T00:06:05;17.40;99.90
5128;DHT22;2582;48.770;9.190;2023-07-22T00:08:32;17.40;99.90
5128;DHT22;2582;48.770;9.190;2023-07-22T00:10:58;17.30;99.90
5128;DHT22;2582;48.770;9.190;2023-07-22T00:13:23;17.20;99.90
5128;DHT22;2582;48.770;9.190;2023-07-22T00:15:55;17.20;99.90
5128;DHT22;2582;48.770;9.190;2023-07-22T00:18:21;17.00;99.90
5128;DHT22;2582;48.770;9.190;2023-07-22T00:20:47;16.90;99.90
5128;DHT22;2582;48.770;9.190;2023-07-22T00:23:13;16.80;99.90
5128;DHT22;2582;48.770;9.190;2023-07-22T00:25:40;16.70;99.90
5128;DHT22;2582;48.770;9.190;2023-07-22T00:28:06;16.50;99.90
5128;DHT22;2582;48.770;9.190;2023-07-22T00:30:31;16.40;99.90
5128;DHT22;2582;48.770;9.190;2023-07-22T00:32:57;16.30;99.90
5128;DHT22;2582;48.770;9.190;2023-07-22T00:35:23;16.30;99.90
5128;DHT22;2582;48.770;9.190;2023-07-22T00:37:48;16.30;99.90
5128;DHT22;2582;48.770;9.190;2023-07-22T00:40:14;16.20;99.90
5128;DHT22;2582;48.770;9.190;2023-07-22T00:42:41;16.20;99.90
5128;DHT22;2582;48.770;9.190;2023-07-22T00:45:07;16.20;99.90
5128;DHT22;2582;48.770;9.190;2023-07-22T00:47:34;16.10;99.90
5128;DHT22;2582;48.770;9.190;2023-07-22T00:50:02;16.00;99.90
5128;DHT22;2582;48.770;9.190;2023-07-22T00:52:28;16.10;99.90
5128;DHT22;2582;48.770;9.190;2023-07-22T00:54:54;16.10;99.90
5128;DHT22;2582;48.770;9.190;2023-07-22T00:57:21;16.10;99.90
5128;DHT22;2582;48.770;9.190;2023-07-22T00:59:47;16.00;99.90
5128;DHT22;2582;48.770;9.190;2023-07-22T01:02:13;16.10;99.90
5128;DHT22;2582;48.770;9.190;2023-07-22T01:04:39;16.10;99.90
5128;DHT22;2582;48.770;9.190;2023-07-22T01:07:06;16.10;99.90
5128;DHT22;2582;48.770;9.190;2023-07-22T01:09:39;16.00;99.90
5128;DHT22;2582;48.770;9.190;2023-07-22T01:12:06;16.00;99.90
5128;DHT22;2582;48.770;9.190;2023-07-22T01:14:37;16.10;99.90
5128;DHT22;2582;48.770;9.190;2023-07-22T01:17:04;16.10;99.90
5128;DHT22;2582;48.770;9.190;2023-07-22T01:19:30;16.10;99.90
5128;DHT22;2582;48.770;9.190;2023-07-22T01:21:59;16.00;99.90
5128;DHT22;2582;48.770;9.190;2023-07-22T01:24:25;15.80;99.90
5128;DHT22;2582;48.770;9.190;2023-07-22T01:26:51;15.70;99.90
5128;DHT22;2582;48.770;9.190;2023-07-22T01:29:17;15.80;99.90
5128;DHT22;2582;48.770;9.190;2023-07-22T01:31:46;15.70;99.90
5128;DHT22;2582;48.770;9.190;2023-07-22T01:34:12;15.60;99.90
5128;DHT22;2582;48.770;9.190;2023-07-22T01:36:38;15.60;99.90
5128;DHT22;2582;48.770;9.190;2023-07-22T01:39:04;15.70;99.90
5128;DHT22;2582;48.770;9.190;2023-07-22T01:41:31;15.70;99.90
5128;DHT22;2582;48.770;9.190;2023-07-22T01:43:57;15.70;99.90
5128;DHT22;2582;48.770;9.190;2023-07-22T01:46:22;15.70;99.90
5128;DHT22;2582;48.770;9.190;2023-07-22T01:48:48;15.70;99.90
5128;DHT22;2582;48.770;9.190;2023-07-22T01:51:13;15.70;99.90
5128;DHT22;2582;48.770;9.190;2023-07-22T01:53:39;15.70;99.90
5128;DHT22;2582;48.770;9.190;2023-07-22T01:56:05;15.70;99.90
5128;DHT22;2582;48.770;9.190;2023-07-22T01:58:31;15.70;99.90
5128;DHT22;2582;48.770;9.190;2023-07-22T02:00:56;15.70;99.90
5128;DHT22;2582;48.770;9.190;2023-07-22T02:03:22;15.80;99.90
5128;DHT22;2582;48.770;9.190;2023-07-22T02:05:47;15.90;99.90
5128;DHT22;2582;48.770;9.190;2023-07-22T02:08:13;16.00;99.90
5128;DHT22;2582;48.770;9.190;2023-07-22T02:10:38;16.00;99.90
5128;DHT22;2582;48.770;9.190;2023-07-22T02:13:04;16.00;99.90
5128;DHT22;2582;48.770;9.190;2023-07-22T02:15:30;15.90;99.90
5128;DHT22;2582;48.770;9.190;2023-07-22T02:17:56;15.90;99.90
5128;DHT22;2582;48.770;9.190;2023-07-22T02:20:22;15.80;99.90
5128;DHT22;2582;48.770;9.190;2023-07-22T02:22:47;15.70;99.90
5128;DHT22;2582;48.770;9.190;2023-07-22T02:25:13;15.70;99.90
5128;DHT22;2582;48.770;9.190;2023-07-22T02:27:40;15.80;99.90
5128;DHT22;2582;48.770;9.190;2023-07-22T02:30:07;15.70;99.90
5128;DHT22;2582;48.770;9.190;2023-07-22T02:32:37;15.80;99.90
5128;DHT22;2582;48.770;9.190;2023-07-22T02:35:03;15.80;99.90
5128;DHT22;2582;48.770;9.190;2023-07-22T02:37:28;15.80;99.90
5128;DHT22;2582;48.770;9.190;2023-07-22T02:39:54;15.80;99.90
5128;DHT22;2582;48.770;9.190;2023-07-22T02:42:20;15.80;99.90
5128;DHT22;2582;48.770;9.190;2023-07-22T02:44:46;15.90;99.90
5128;DHT22;2582;48.770;9.190;2023-07-22T02:47:12;15.80;99.90
5128;DHT22;2582;48.770;9.190;2023-07-22T02:49:37;15.80;99.90
5128;DHT22;2582;48.770;9.190;2023-07-22T02:52:03;15.80;99.90
5128;DHT22;2582;48.770;9.190;2023-07-22T02:54:29;15.80;99.90
5128;DHT22;2582;48.770;9.190;2023-07-22T02:56:54;15.80;99.90
5128;DHT22;2582;48.770;9.190;2023-07-22T02:59:20;15.80;99.90
5128;DHT22;2582;48.770;9.190;2023-07-22T03:01:45;15.70;99.90
5128;DHT22;2582;48.770;9.190;2023-07-22T03:04:11;15.70;99.90
5128;DHT22;2582;48.770;9.190;2023-07-22T03:06:37;15.70;99.90
5128;DHT22;2582;48.770;9.190;2023-07-22T03:09:03;15.80;99.90
5128;DHT22;2582;48.770;9.190;2023-07-22T03:11:30;15.70;99.90
5128;DHT22;2582;48.770;9.190;2023-07-22T03:13:55;15.70;99.90
5128;DHT22;2582;48.770;9.190;2023-07-22T03:16:21;15.70;99.90
5128;DHT22;2582;48.770;9.190;2023-07-22T03:18:46;15.70;99.90
5128;DHT22;2582;48.770;9.190;2023-07-22T03:21:12;15.70;99.90
5128;DHT22;2582;48.770;9.190;2023-07-22T03:23:38;15.70;99.90
5128;DHT22;2582;48.770;9.190;2023-07-22T03:26:04;15.70;99.90
5128;DHT22;2582;48.770;9.190;2023-07-22T03:28:30;15.70;99.90
5128;DHT22;2582;48.770;9.190;2023-07-22T03:30:55;15.70;99.90
5128;DHT22;2582;48.770;9.190;2023-07-22T03:33:21;15.70;99.90
5128;DHT22;2582;48.770;9.190;2023-07-22T03:35:47;15.60;99.90
5128;DHT22;2582;48.770;9.190;2023-07-22T03:38:13;15.60;99.90
5128;DHT22;2582;48.770;9.190;2023-07-22T03:40:39;15.60;99.90
5128;DHT22;2582;48.770;9.190;2023-07-22T03:43:05;15.50;99.90
5128;DHT22;2582;48.770;9.190;2023-07-22T03:45:30;15.50;99.90
5128;DHT22;2582;48.770;9.190;2023-07-22T03:47:57;15.50;99.90
5128;DHT22;2582;48.770;9.190;2023-07-22T03:50:24;15.50;99.90
5128;DHT22;2582;48.770;9.190;2023-07-22T03:52:49;15.60;99.90
5128;DHT22;2582;48.770;9.190;2023-07-22T03:55:15;15.60;99.90
5128;DHT22;2582;48.770;9.190;2023-07-22T03:57:40;15.60;99.90
5128;DHT22;2582;48.770;9.190;2023-07-22T04:00:07;15.70;99.90
5128;DHT22;2582;48.770;9.190;2023-07-22T04:02:36;15.70;99.90
5128;DHT22;2582;48.770;9.190;2023-07-22T04:05:01;15.70;99.90
5128;DHT22;2582;48.770;9.190;2023-07-22T04:07:27;15.80;99.90
5128;DHT22;2582;48.770;9.190;2023-07-22T04:09:52;15.90;99.90
5128;DHT22;2582;48.770;9.190;2023-07-22T04:12:18;15.90;99.90
5128;DHT22;2582;48.770;9.190;2023-07-22T04:14:43;16.00;99.90
5128;DHT22;2582;48.770;9.190;2023-07-22T04:17:09;16.00;99.90
5128;DHT22;2582;48.770;9.190;2023-07-22T04:19:35;16.10;99.90
5128;DHT22;2582;48.770;9.190;2023-07-22T04:22:01;16.00;99.90
5128;DHT22;2582;48.770;9.190;2023-07-22T04:24:30;16.00;99.90
5128;DHT22;2582;48.770;9.190;2023-07-22T04:26:56;16.00;99.90
5128;DHT22;2582;48.770;9.190;2023-07-22T04:29:22;16.00;99.90
5128;DHT22;2582;48.770;9.190;2023-07-22T04:31:48;16.00;99.90
5128;DHT22;2582;48.770;9.190;2023-07-22T04:34:13;16.00;99.90
5128;DHT22;2582;48.770;9.190;2023-07-22T04:36:39;16.00;99.90
5128;DHT22;2582;48.770;9.190;2023-07-22T04:39:04;16.10;99.90
5128;DHT22;2582;48.770;9.190;2023-07-22T04:41:31;16.20;99.90
5128;DHT22;2582;48.770;9.190;2023-07-22T04:43:57;16.20;99.90
5128;DHT22;2582;48.770;9.190;2023-07-22T04:46:24;16.20;99.90
5128;DHT22;2582;48.770;9.190;2023-07-22T04:48:49;16.20;99.90
5128;DHT22;2582;48.770;9.190;2023-07-22T04:51:15;16.30;99.90
5128;DHT22;2582;48.770;9.190;2023-07-22T04:53:40;16.30;99.90
5128;DHT22;2582;48.770;9.190;2023-07-22T04:56:06;16.40;99.90
5128;DHT22;2582;48.770;9.190;2023-07-22T04:58:32;16.50;99.90
5128;DHT22;2582;48.770;9.190;2023-07-22T05:00:58;16.50;99.90
5128;DHT22;2582;48.770;9.190;2023-07-22T05:03:23;16.70;99.90
5128;DHT22;2582;48.770;9.190;2023-07-22T05:05:52;16.70;99.90
5128;DHT22;2582;48.770;9.190;2023-07-22T05:08:17;16.80;99.90
5128;DHT22;2582;48.770;9.190;2023-07-22T05:10:43;16.90;99.90
5128;DHT22;2582;48.770;9.190;2023-07-22T05:13:09;16.80;99.90
5128;DHT22;2582;48.770;9.190;2023-07-22T05:15:34;16.90;99.90
5128;DHT22;2582;48.770;9.190;2023-07-22T05:18:00;17.00;99.90
5128;DHT22;2582;48.770;9.190;2023-07-22T05:20:25;17.00;99.90
5128;DHT22;2582;48.770;9.190;2023-07-22T05:22:51;16.90;99.90
5128;DHT22;2582;48.770;9.190;2023-07-22T05:25:17;17.00;99.90
5128;DHT22;2582;48.770;9.190;2023-07-22T05:27:43;17.00;99.90
5128;DHT22;2582;48.770;9.190;2023-07-22T05:30:09;17.00;99.90
5128;DHT22;2582;48.770;9.190;2023-07-22T05:32:35;17.10;99.90
5128;DHT22;2582;48.770;9.190;2023-07-22T05:35:01;17.00;99.90
5128;DHT22;2582;48.770;9.190;2023-07-22T05:37:30;17.10;99.90
5128;DHT22;2582;48.770;9.190;2023-07-22T05:39:56;17.20;99.90
5128;DHT22;2582;48.770;9.190;2023-07-22T05:42:22;17.40;99.90
5128;DHT22;2582;48.770;9.190;2023-07-22T05:44:48;17.50;99.90
5128;DHT22;2582;48.770;9.190;2023-07-22T05:47:14;17.60;99.90
5128;DHT22;2582;48.770;9.190;2023-07-22T05:49:39;17.70;99.90
5128;DHT22;2582;48.770;9.190;2023-07-22T05:52:05;17.60;99.90
5128;DHT22;2582;48.770;9.190;2023-07-22T05:54:31;17.70;99.90
5128;DHT22;2582;48.770;9.190;2023-07-22T05:56:57;17.80;99.90
5128;DHT22;2582;48.770;9.190;2023-07-22T05:59:22;17.90;99.90
5128;DHT22;2582;48.770;9.190;2023-07-22T06:01:48;18.20;99.90
5128;DHT22;2582;48.770;9.190;2023-07-22T06:04:13;18.30;99.90
5128;DHT22;2582;48.770;9.190;2023-07-22T06:06:39;18.50;99.90
5128;DHT22;2582;48.770;9.190;2023-07-22T06:09:05;18.60;99.90
5128;DHT22;2582;48.770;9.190;2023-07-22T06:11:30;18.70;99.90
5128;DHT22;2582;48.770;9.190;2023-07-22T06:13:56;18.00;99.90
5128;DHT22;2582;48.770;9.190;2023-07-22T06:16:21;17.90;99.90
5128;DHT22;2582;48.770;9.190;2023-07-22T06:18:47;17.90;99.90
5128;DHT22;2582;48.770;9.190;2023-07-22T06:21:13;18.30;99.90
5128;DHT22;2582;48.770;9.190;2023-07-22T06:23:39;18.60;99.90
5128;DHT22;2582;48.770;9.190;2023-07-22T06:26:04;18.80;99.90
5128;DHT22;2582;48.770;9.190;2023-07-22T06:28:30;19.00;99.90
5128;DHT22;2582;48.770;9.190;2023-07-22T06:30:56;18.90;99.90
5128;DHT22;2582;48.770;9.190;2023-07-22T06:33:22;19.00;99.90
5128;DHT22;2582;48.770;9.190;2023-07-22T06:35:48;18.80;99.90
5128;DHT22;2582;48.770;9.190;2023-07-22T06:38:13;18.80;99.90
5128;DHT22;2582;48.770;9.190;2023-07-22T06:40:39;19.10;99.90
5128;DHT22;2582;48.770;9.190;2023-07-22T06:43:05;19.20;99.90
5128;DHT22;2582;48.770;9.190;2023-07-22T06:45:32;19.30;99.90
5128;DHT22;2582;48.770;9.190;2023-07-22T06:47:57;19.20;99.90
5128;DHT22;2582;48.770;9.190;2023-07-22T06:50:23;19.20;99.90
5128;DHT22;2582;48.770;9.190;2023-07-22T06:52:49;19.40;99.90
5128;DHT22;2582;48.770;9.190;2023-07-22T06:55:15;19.50;99.90
5128;DHT22;2582;48.770;9.190;2023-07-22T06:57:40;19.40;99.90
5128;DHT22;2582;48.770;9.190;2023-07-22T07:00:06;19.10;99.90
5128;DHT22;2582;48.770;9.190;2023-07-22T07:02:32;19.10;99.90
5128;DHT22;2582;48.770;9.190;2023-07-22T07:04:58;19.20;99.90
5128;DHT22;2582;48.770;9.190;2023-07-22T07:07:23;19.60;99.90
5128;DHT22;2582;48.770;9.190;2023-07-22T07:09:49;19.80;99.90
5128;DHT22;2582;48.770;9.190;2023-07-22T07:12:16;19.80;99.90
5128;DHT22;2582;48.770;9.190;2023-07-22T07:14:41;19.60;99.90
5128;DHT22;2582;48.770;9.190;2023-07-22T07:17:07;19.90;99.90
5128;DHT22;2582;48.770;9.190;2023-07-22T07:19:32;19.90;99.90
5128;DHT22;2582;48.770;9.190;2023-07-22T07:21:58;19.70;99.90
5128;DHT22;2582;48.770;9.190;2023-07-22T07:24:24;19.80;99.90
5128;DHT22;2582;48.770;9.190;2023-07-22T07:26:49;20.10;99.90
5128;DHT22;2582;48.770;9.190;2023-07-22T07:29:15;20.40;99.90
5128;DHT22;2582;48.770;9.190;2023-07-22T07:31:40;20.50;99.90
5128;DHT22;2582;48.770;9.190;2023-07-22T07:34:06;20.40;99.90
5128;DHT22;2582;48.770;9.190;2023-07-22T07:36:33;20.50;99.90
5128;DHT22;2582;48.770;9.190;2023-07-22T07:38:58;20.80;99.90
5128;DHT22;2582;48.770;9.190;2023-07-22T07:41:24;21.00;99.90
5128;DHT22;2582;48.770;9.190;2023-07-22T07:43:50;21.40;99.90
5128;DHT22;2582;48.770;9.190;2023-07-22T07:46:22;21.40;99.90
5128;DHT22;2582;48.770;9.190;2023-07-22T07:48:53;21.60;99.90
5128;DHT22;2582;48.770;9.190;2023-07-22T07:51:21;22.00;99.90
5128;DHT22;2582;48.770;9.190;2023-07-22T07:53:47;22.00;99.90
5128;DHT22;2582;48.770;9.190;2023-07-22T07:56:13;22.20;99.90
5128;DHT22;2582;48.770;9.190;2023-07-22T07:58:39;22.40;99.90
5128;DHT22;2582;48.770;9.190;2023-07-22T08:01:06;22.40;99.90
5128;DHT22;2582;48.770;9.190;2023-07-22T08:03:32;22.10;99.90
5128;DHT22;2582;48.770;9.190;2023-07-22T08:05:58;22.10;99.90
5128;DHT22;2582;48.770;9.190;2023-07-22T08:08:24;22.10;99.90
5128;DHT22;2582;48.770;9.190;2023-07-22T08:11:05;22.10;99.90
5128;DHT22;2582;48.770;9.190;2023-07-22T08:13:31;22.30;99.90
5128;DHT22;2582;48.770;9.190;2023-07-22T08:16:02;22.40;99.90
5128;DHT22;2582;48.770;9.190;2023-07-22T08:18:29;22.50;99.70
5128;DHT22;2582;48.770;9.190;2023-07-22T08:20:55;22.50;98.90
5128;DHT22;2582;48.770;9.190;2023-07-22T08:23:21;22.50;98.60
5128;DHT22;2582;48.770;9.190;2023-07-22T08:25:47;22.40;99.30
5128;DHT22;2582;48.770;9.190;2023-07-22T08:28:13;22.60;99.00
5128;DHT22;2582;48.770;9.190;2023-07-22T08:30:39;22.60;98.50
5128;DHT22;2582;48.770;9.190;2023-07-22T08:33:06;22.70;98.50
5128;DHT22;2582;48.770;9.190;2023-07-22T08:35:37;23.00;97.90
5128;DHT22;2582;48.770;9.190;2023-07-22T08:38:03;22.90;96.80
5128;DHT22;2582;48.770;9.190;2023-07-22T08:40:41;22.80;97.40
5128;DHT22;2582;48.770;9.190;2023-07-22T08:43:09;22.80;97.20
5128;DHT22;2582;48.770;9.190;2023-07-22T08:45:36;22.90;96.80
5128;DHT22;2582;48.770;9.190;2023-07-22T08:48:07;23.00;97.20
5128;DHT22;2582;48.770;9.190;2023-07-22T08:50:43;23.10;96.30
5128;DHT22;2582;48.770;9.190;2023-07-22T08:53:10;23.30;96.40
5128;DHT22;2582;48.770;9.190;2023-07-22T08:55:37;23.50;95.90
5128;DHT22;2582;48.770;9.190;2023-07-22T08:58:07;23.70;95.80
5128;DHT22;2582;48.770;9.190;2023-07-22T09:00:33;23.80;94.60
5128;DHT22;2582;48.770;9.190;2023-07-22T09:02:59;23.90;94.40
5128;DHT22;2582;48.770;9.190;2023-07-22T09:05:26;24.10;94.30
5128;DHT22;2582;48.770;9.190;2023-07-22T09:07:52;24.30;91.60
5128;DHT22;2582;48.770;9.190;2023-07-22T09:10:19;24.20;90.80
5128;DHT22;2582;48.770;9.190;2023-07-22T09:12:46;24.20;90.10
5128;DHT22;2582;48.770;9.190;2023-07-22T09:15:12;24.30;91.50
5128;DHT22;2582;48.770;9.190;2023-07-22T09:17:38;24.30;90.20
5128;DHT22;2582;48.770;9.190;2023-07-22T09:20:05;24.50;90.40
5128;DHT22;2582;48.770;9.190;2023-07-22T09:22:32;24.20;88.50
5128;DHT22;2582;48.770;9.190;2023-07-22T09:25:17;24.10;88.10
5128;DHT22;2582;48.770;9.190;2023-07-22T09:27:44;23.90;89.60
5128;DHT22;2582;48.770;9.190;2023-07-22T09:30:30;24.10;89.30
5128;DHT22;2582;48.770;9.190;2023-07-22T09:33:01;24.20;90.50
5128;DHT22;2582;48.770;9.190;2023-07-22T09:35:29;24.00;89.40
5128;DHT22;2582;48.770;9.190;2023-07-22T09:37:56;23.90;90.00
5128;DHT22;2582;48.770;9.190;2023-07-22T09:40:28;23.80;90.20
5128;DHT22;2582;48.770;9.190;2023-07-22T09:42:55;23.90;90.10
5128;DHT22;2582;48.770;9.190;2023-07-22T09:45:23;24.10;89.10
5128;DHT22;2582;48.770;9.190;2023-07-22T09:47:51;24.40;88.50
5128;DHT22;2582;48.770;9.190;2023-07-22T09:50:22;24.60;88.20
5128;DHT22;2582;48.770;9.190;2023-07-22T09:52:53;24.80;88.70
5128;DHT22;2582;48.770;9.190;2023-07-22T09:55:21;24.80;87.20
5128;DHT22;2582;48.770;9.190;2023-07-22T09:57:50;25.00;88.30
5128;DHT22;2582;48.770;9.190;2023-07-22T10:00:17;24.90;86.60
5128;DHT22;2582;48.770;9.190;2023-07-22T10:02:49;24.70;85.60
5128;DHT22;2582;48.770;9.190;2023-07-22T10:05:19;24.80;85.80
5128;DHT22;2582;48.770;9.190;2023-07-22T10:07:50;25.20;86.40
5128;DHT22;2582;48.770;9.190;2023-07-22T10:10:18;25.60;83.20
5128;DHT22;2582;48.770;9.190;2023-07-22T10:12:45;25.90;82.90
5128;DHT22;2582;48.770;9.190;2023-07-22T10:15:14;25.80;80.50
5128;DHT22;2582;48.770;9.190;2023-07-22T10:17:41;26.00;78.80
5128;DHT22;2582;48.770;9.190;2023-07-22T10:20:11;26.40;79.70
5128;DHT22;2582;48.770;9.190;2023-07-22T10:22:44;26.50;77.90
5128;DHT22;2582;48.770;9.190;2023-07-22T10:25:20;26.20;77.20
5128;DHT22;2582;48.770;9.190;2023-07-22T10:27:48;25.70;78.60
5128;DHT22;2582;48.770;9.190;2023-07-22T10:30:16;25.50;78.90
5128;DHT22;2582;48.770;9.190;2023-07-22T10:32:47;25.50;77.80
5128;DHT22;2582;48.770;9.190;2023-07-22T10:35:21;25.60;77.30
5128;DHT22;2582;48.770;9.190;2023-07-22T10:37:47;25.20;78.00
5128;DHT22;2582;48.770;9.190;2023-07-22T10:40:26;25.40;78.80
5128;DHT22;2582;48.770;9.190;2023-07-22T10:43:05;25.70;78.00
5128;DHT22;2582;48.770;9.190;2023-07-22T10:45:33;26.00;75.80
5128;DHT22;2582;48.770;9.190;2023-07-22T10:48:10;26.20;77.40
5128;DHT22;2582;48.770;9.190;2023-07-22T10:50:40;26.30;75.40
5128;DHT22;2582;48.770;9.190;2023-07-22T10:53:09;26.40;76.00
5128;DHT22;2582;48.770;9.190;2023-07-22T11:04:13;27.00;77.60
5128;DHT22;2582;48.770;9.190;2023-07-22T11:06:52;27.10;73.20
5128;DHT22;2582;48.770;9.190;2023-07-22T11:17:13;26.70;74.20
5128;DHT22;2582;48.770;9.190;2023-07-22T11:19:39;26.50;72.60
5128;DHT22;2582;48.770;9.190;2023-07-22T11:22:06;26.10;72.60
5128;DHT22;2582;48.770;9.190;2023-07-22T11:24:34;26.00;75.60
5128;DHT22;2582;48.770;9.190;2023-07-22T11:27:04;25.60;74.50
5128;DHT22;2582;48.770;9.190;2023-07-22T11:29:30;25.70;74.50
5128;DHT22;2582;48.770;9.190;2023-07-22T11:31:55;25.60;75.80
5128;DHT22;2582;48.770;9.190;2023-07-22T11:34:23;25.90;76.80
5128;DHT22;2582;48.770;9.190;2023-07-22T11:36:50;25.80;76.10
5128;DHT22;2582;48.770;9.190;2023-07-22T11:39:26;25.90;76.80
5128;DHT22;2582;48.770;9.190;2023-07-22T11:41:53;27.20;74.10
5128;DHT22;2582;48.770;9.190;2023-07-22T11:44:21;27.50;74.00
5128;DHT22;2582;48.770;9.190;2023-07-22T11:47:20;28.30;71.30
5128;DHT22;2582;48.770;9.190;2023-07-22T11:49:53;28.90;69.00
5128;DHT22;2582;48.770;9.190;2023-07-22T11:52:19;29.90;66.80
5128;DHT22;2582;48.770;9.190;2023-07-22T11:54:45;31.50;62.60
5128;DHT22;2582;48.770;9.190;2023-07-22T11:57:18;31.20;62.80
5128;DHT22;2582;48.770;9.190;2023-07-22T11:59:54;30.50;61.90
5128;DHT22;2582;48.770;9.190;2023-07-22T12:02:21;30.30;66.60
5128;DHT22;2582;48.770;9.190;2023-07-22T12:04:55;31.20;60.40
5128;DHT22;2582;48.770;9.190;2023-07-22T12:07:22;30.80;60.20
5128;DHT22;2582;48.770;9.190;2023-07-22T12:09:49;29.90;63.00
5128;DHT22;2582;48.770;9.190;2023-07-22T12:12:14;29.10;64.60
5128;DHT22;2582;48.770;9.190;2023-07-22T12:14:41;28.10;66.30
5128;DHT22;2582;48.770;9.190;2023-07-22T12:17:08;27.40;68.80
5128;DHT22;2582;48.770;9.190;2023-07-22T12:19:35;27.10;69.90
5128;DHT22;2582;48.770;9.190;2023-07-22T12:22:01;26.90;69.70
5128;DHT22;2582;48.770;9.190;2023-07-22T12:24:28;27.00;69.10
5128;DHT22;2582;48.770;9.190;2023-07-22T12:26:53;27.80;67.80
5128;DHT22;2582;48.770;9.190;2023-07-22T12:29:19;28.80;66.30
5128;DHT22;2582;48.770;9.190;2023-07-22T12:31:45;30.70;63.20
5128;DHT22;2582;48.770;9.190;2023-07-22T12:34:11;31.20;58.10
5128;DHT22;2582;48.770;9.190;2023-07-22T12:36:36;31.90;57.70
5128;DHT22;2582;48.770;9.190;2023-07-22T12:39:02;33.00;56.40
5128;DHT22;2582;48.770;9.190;2023-07-22T12:41:28;32.90;55.30
5128;DHT22;2582;48.770;9.190;2023-07-22T12:43:54;31.90;57.00
5128;DHT22;2582;48.770;9.190;2023-07-22T12:46:19;30.90;57.80
5128;DHT22;2582;48.770;9.190;2023-07-22T12:48:45;29.70;58.50
5128;DHT22;2582;48.770;9.190;2023-07-22T12:51:10;29.50;61.10
5128;DHT22;2582;48.770;9.190;2023-07-22T12:53:36;29.50;58.60
5128;DHT22;2582;48.770;9.190;2023-07-22T12:56:02;28.90;59.60
5128;DHT22;2582;48.770;9.190;2023-07-22T12:58:28;28.40;60.20
5128;DHT22;2582;48.770;9.190;2023-07-22T13:00:54;28.00;61.80
5128;DHT22;2582;48.770;9.190;2023-07-22T13:03:20;27.70;61.80
5128;DHT22;2582;48.770;9.190;2023-07-22T13:05:45;27.80;62.10
5128;DHT22;2582;48.770;9.190;2023-07-22T13:08:11;29.40;58.80
5128;DHT22;2582;48.770;9.190;2023-07-22T13:10:37;31.10;56.30
5128;DHT22;2582;48.770;9.190;2023-07-22T13:13:05;30.70;56.00
5128;DHT22;2582;48.770;9.190;2023-07-22T13:15:31;30.70;59.10
5128;DHT22;2582;48.770;9.190;2023-07-22T13:17:56;30.90;55.80
5128;DHT22;2582;48.770;9.190;2023-07-22T13:20:22;30.20;55.60
5128;DHT22;2582;48.770;9.190;2023-07-22T13:22:48;30.10;58.00
5128;DHT22;2582;48.770;9.190;2023-07-22T13:25:13;31.30;55.20
5128;DHT22;2582;48.770;9.190;2023-07-22T13:27:39;32.50;53.90
5128;DHT22;2582;48.770;9.190;2023-07-22T13:30:09;32.90;52.20
5128;DHT22;2582;48.770;9.190;2023-07-22T13:32:35;32.30;51.40
5128;DHT22;2582;48.770;9.190;2023-07-22T13:35:00;32.40;51.40
5128;DHT22;2582;48.770;9.190;2023-07-22T13:37:26;33.40;50.00
5128;DHT22;2582;48.770;9.190;2023-07-22T13:39:52;32.80;50.20
5128;DHT22;2582;48.770;9.190;2023-07-22T13:42:18;31.00;52.10
5128;DHT22;2582;48.770;9.190;2023-07-22T13:44:43;30.30;54.40
5128;DHT22;2582;48.770;9.190;2023-07-22T13:47:09;30.30;54.00
5128;DHT22;2582;48.770;9.190;2023-07-22T13:49:35;30.90;51.60
5128;DHT22;2582;48.770;9.190;2023-07-22T13:52:00;30.50;53.50
5128;DHT22;2582;48.770;9.190;2023-07-22T13:54:26;31.10;52.10
5128;DHT22;2582;48.770;9.190;2023-07-22T13:56:51;31.90;50.90
5128;DHT22;2582;48.770;9.190;2023-07-22T13:59:17;31.50;50.80
5128;DHT22;2582;48.770;9.190;2023-07-22T14:01:42;30.80;52.10
5128;DHT22;2582;48.770;9.190;2023-07-22T14:04:08;30.90;54.20
5128;DHT22;2582;48.770;9.190;2023-07-22T14:06:34;30.60;53.60
5128;DHT22;2582;48.770;9.190;2023-07-22T14:09:00;31.60;53.50
5128;DHT22;2582;48.770;9.190;2023-07-22T14:11:26;32.50;51.10
5128;DHT22;2582;48.770;9.190;2023-07-22T14:13:51;32.20;50.60
5128;DHT22;2582;48.770;9.190;2023-07-22T14:16:17;31.00;53.00
5128;DHT22;2582;48.770;9.190;2023-07-22T14:18:43;30.40;53.60
5128;DHT22;2582;48.770;9.190;2023-07-22T14:21:08;30.30;53.60
5128;DHT22;2582;48.770;9.190;2023-07-22T14:23:39;30.40;53.80
5128;DHT22;2582;48.770;9.190;2023-07-22T14:26:04;31.60;53.40
5128;DHT22;2582;48.770;9.190;2023-07-22T14:28:30;33.20;51.20
5128;DHT22;2582;48.770;9.190;2023-07-22T14:30:55;34.00;49.30
5128;DHT22;2582;48.770;9.190;2023-07-22T14:33:21;34.50;48.50
5128;DHT22;2582;48.770;9.190;2023-07-22T14:35:46;34.80;48.60
5128;DHT22;2582;48.770;9.190;2023-07-22T14:38:12;34.20;46.90
5128;DHT22;2582;48.770;9.190;2023-07-22T14:40:37;33.80;47.90
5128;DHT22;2582;48.770;9.190;2023-07-22T14:43:03;33.40;48.30
5128;DHT22;2582;48.770;9.190;2023-07-22T14:45:29;34.10;48.30
5128;DHT22;2582;48.770;9.190;2023-07-22T14:47:55;34.50;47.00
5128;DHT22;2582;48.770;9.190;2023-07-22T14:50:20;34.80;47.00
5128;DHT22;2582;48.770;9.190;2023-07-22T14:52:46;34.70;47.00
5128;DHT22;2582;48.770;9.190;2023-07-22T14:55:12;34.30;47.40
5128;DHT22;2582;48.770;9.190;2023-07-22T14:57:37;33.10;46.90
5128;DHT22;2582;48.770;9.190;2023-07-22T15:00:03;31.70;49.00
5128;DHT22;2582;48.770;9.190;2023-07-22T15:02:29;31.80;49.40
5128;DHT22;2582;48.770;9.190;2023-07-22T15:04:54;31.70;49.70
5128;DHT22;2582;48.770;9.190;2023-07-22T15:07:21;31.30;49.40
5128;DHT22;2582;48.770;9.190;2023-07-22T15:09:47;31.60;49.80
5128;DHT22;2582;48.770;9.190;2023-07-22T15:12:13;31.50;50.40
5128;DHT22;2582;48.770;9.190;2023-07-22T15:14:38;31.00;50.40
5128;DHT22;2582;48.770;9.190;2023-07-22T15:17:04;30.50;50.70
5128;DHT22;2582;48.770;9.190;2023-07-22T15:19:31;29.60;52.50
5128;DHT22;2582;48.770;9.190;2023-07-22T15:21:56;28.80;53.40
5128;DHT22;2582;48.770;9.190;2023-07-22T15:24:22;28.10;54.50
5128;DHT22;2582;48.770;9.190;2023-07-22T15:26:47;28.40;55.60
5128;DHT22;2582;48.770;9.190;2023-07-22T15:29:13;28.60;54.70
5128;DHT22;2582;48.770;9.190;2023-07-22T15:31:39;28.90;53.80
5128;DHT22;2582;48.770;9.190;2023-07-22T15:34:04;29.10;54.00
5128;DHT22;2582;48.770;9.190;2023-07-22T15:36:30;29.20;54.90
5128;DHT22;2582;48.770;9.190;2023-07-22T15:38:56;29.50;54.30
5128;DHT22;2582;48.770;9.190;2023-07-22T15:41:21;29.40;53.80
5128;DHT22;2582;48.770;9.190;2023-07-22T15:43:47;29.10;54.20
5128;DHT22;2582;48.770;9.190;2023-07-22T15:46:13;29.10;54.30
5128;DHT22;2582;48.770;9.190;2023-07-22T15:48:38;29.30;55.40
5128;DHT22;2582;48.770;9.190;2023-07-22T15:51:04;29.10;54.70
5128;DHT22;2582;48.770;9.190;2023-07-22T15:53:29;29.00;54.20
5128;DHT22;2582;48.770;9.190;2023-07-22T15:55:55;29.00;54.90
5128;DHT22;2582;48.770;9.190;2023-07-22T15:58:20;28.70;54.60
5128;DHT22;2582;48.770;9.190;2023-07-22T16:00:47;28.40;56.10
5128;DHT22;2582;48.770;9.190;2023-07-22T16:03:13;28.80;55.90
5128;DHT22;2582;48.770;9.190;2023-07-22T16:05:39;29.00;55.10
5128;DHT22;2582;48.770;9.190;2023-07-22T16:08:05;28.90;55.10
5128;DHT22;2582;48.770;9.190;2023-07-22T16:10:32;28.60;55.60
5128;DHT22;2582;48.770;9.190;2023-07-22T16:12:59;29.00;55.40
5128;DHT22;2582;48.770;9.190;2023-07-22T16:15:24;29.40;56.20